ROK weather

Rockhampton Airport
Rockhampton, Queensland, Australia

Public forecast

Using degrees Celsius for public forecast. Weather courtesy of forecast.io.

METAR (pilot weather report)

Retrieved 2018/05/28 07:30 UTC (0 seconds ago):

YBRK 280730Z AUTO 10008KT 9999 // NCD 22/12 Q1018 RF00.0/000.0

TAF (pilot weather forecast)

Retrieved 2018/05/28 06:37 UTC (38 minutes ago):

TAF YBRK 280505Z 2806/2906 11010KT 9999 SCT045 FM280900 13008KT 9999 SCT035 FM290000 11010KT 9999 SCT045